Time;durP1;ratioP1;P1;durP2;ratioP2;P2;SDS_P1;SDS_P2;PMS_P1;PMS_P2;Temp;Humidity;BMP_temperature;BMP_pressure;BME280_temperature;BME280_humidity;BME280_pressure;Samples;Min_cycle;Max_cycle;Signal;HPM_P1;HPM_P2
2023/09/16 00:00:19;;;;;;;8.73;3.08;;;22.80;58.90;;;;;;5052201;28;20116;-46
2023/09/16 00:02:45;;;;;;;10.25;2.97;;;22.80;57.90;;;;;;5064898;28;20020;-53
2023/09/16 00:05:12;;;;;;;11.32;3.08;;;22.80;58.20;;;;;;5058054;28;20400;-49
2023/09/16 00:07:38;;;;;;;29.75;3.60;;;22.80;58.00;;;;;;5060725;28;20100;-47
2023/09/16 00:10:04;;;;;;;9.38;2.72;;;22.80;58.20;;;;;;5058455;28;20053;-48
2023/09/16 00:12:30;;;;;;;6.40;2.50;;;22.80;58.20;;;;;;5065503;28;20485;-51
2023/09/16 00:14:56;;;;;;;7.47;2.70;;;22.80;58.20;;;;;;5059815;28;20031;-51
2023/09/16 00:17:22;;;;;;;9.35;3.10;;;22.80;58.20;;;;;;5058682;28;20028;-49
2023/09/16 00:19:48;;;;;;;8.35;2.85;;;22.80;58.20;;;;;;5057950;28;20044;-48
2023/09/16 00:22:14;;;;;;;7.47;2.80;;;22.80;58.20;;;;;;5061994;28;20442;-51
2023/09/16 00:24:40;;;;;;;6.75;2.80;;;22.80;58.20;;;;;;5066001;28;20104;-52
2023/09/16 00:27:08;;;;;;;7.95;2.63;;;22.80;58.20;;;;;;5066182;28;20032;-53
2023/09/16 00:29:34;;;;;;;7.13;2.70;;;22.80;58.20;;;;;;5051743;28;20120;-49
2023/09/16 00:32:04;;;;;;;5.82;2.70;;;22.80;58.30;;;;;;5041890;28;20032;-52
2023/09/16 00:34:30;;;;;;;6.65;3.00;;;22.80;58.10;;;;;;5064302;28;20111;-47
2023/09/16 00:36:56;;;;;;;7.57;2.70;;;22.80;58.20;;;;;;5071892;28;20586;-48
2023/09/16 00:39:23;;;;;;;8.30;2.70;;;22.80;58.10;;;;;;5048828;28;20140;-48
2023/09/16 00:41:49;;;;;;;7.20;2.90;;;22.80;58.30;;;;;;5064963;28;20434;-49
2023/09/16 00:44:14;;;;;;;4.93;2.70;;;22.80;58.20;;;;;;5043946;28;20033;-49
2023/09/16 00:46:40;;;;;;;6.10;2.83;;;22.80;58.00;;;;;;5066644;28;20020;-49
2023/09/16 00:49:06;;;;;;;5.25;2.63;;;22.80;58.20;;;;;;5071379;28;20025;-52
2023/09/16 00:51:33;;;;;;;9.70;3.28;;;22.80;57.90;;;;;;5071179;28;20091;-46
2023/09/16 00:54:00;;;;;;;5.00;2.70;;;22.80;57.90;;;;;;5071500;28;20020;-47
2023/09/16 00:56:27;;;;;;;6.88;2.60;;;22.80;58.20;;;;;;5069380;28;20033;-46
2023/09/16 00:58:58;;;;;;;6.18;2.92;;;22.80;58.20;;;;;;5054689;28;20492;-53
2023/09/16 01:01:25;;;;;;;7.57;2.90;;;22.80;58.20;;;;;;5051164;28;20025;-55
2023/09/16 01:03:52;;;;;;;7.47;2.88;;;22.80;58.10;;;;;;5051392;28;20472;-54
2023/09/16 01:06:18;;;;;;;7.25;2.95;;;22.80;58.10;;;;;;5051323;28;20516;-53
2023/09/16 01:08:44;;;;;;;7.47;2.88;;;22.70;57.80;;;;;;5051292;28;20033;-54
2023/09/16 01:11:11;;;;;;;5.70;2.40;;;22.80;57.90;;;;;;5050775;28;20463;-54
2023/09/16 01:13:38;;;;;;;7.88;2.88;;;22.80;57.90;;;;;;5054679;28;20017;-51
2023/09/16 01:16:44;;;;;;;7.57;3.03;;;22.80;58.90;;;;;;5071228;28;20383;-54
2023/09/16 01:19:47;;;;;;;5.85;2.75;;;22.80;58.10;;;;;;4970086;28;20089;-48
2023/09/16 01:22:14;;;;;;;5.28;2.53;;;22.80;58.10;;;;;;4948982;28;20462;-52
2023/09/16 01:24:40;;;;;;;3.85;2.38;;;22.80;58.30;;;;;;4970016;28;20093;-51
2023/09/16 01:27:07;;;;;;;5.93;2.85;;;22.80;58.10;;;;;;4954150;28;20046;-51
2023/09/16 01:29:34;;;;;;;10.32;2.70;;;22.70;58.00;;;;;;4950825;28;20042;-51
2023/09/16 01:32:04;;;;;;;10.07;2.63;;;22.80;58.20;;;;;;4963036;28;20035;-54
2023/09/16 01:34:50;;;;;;;8.00;2.72;;;22.70;58.10;;;;;;4946899;28;20074;-47
2023/09/16 01:37:19;;;;;;;10.23;2.83;;;22.70;58.10;;;;;;4970190;28;20039;-50
2023/09/16 01:39:49;;;;;;;6.25;2.22;;;22.70;57.90;;;;;;4970235;28;20037;-54
2023/09/16 01:42:16;;;;;;;6.47;2.70;;;22.70;58.10;;;;;;4969931;28;20054;-52
2023/09/16 01:44:42;;;;;;;5.60;2.55;;;22.70;58.10;;;;;;4970084;28;20065;-52
2023/09/16 01:47:08;;;;;;;6.47;2.50;;;22.70;58.10;;;;;;4951287;28;20067;-49
2023/09/16 01:49:33;;;;;;;8.65;2.40;;;22.70;57.90;;;;;;4969938;28;20053;-52
2023/09/16 01:51:59;;;;;;;7.53;2.38;;;22.70;58.00;;;;;;4950445;28;20036;-50
2023/09/16 01:54:25;;;;;;;8.63;2.60;;;22.70;57.60;;;;;;5006999;28;20133;-55
2023/09/16 01:56:51;;;;;;;5.57;2.50;;;22.70;57.60;;;;;;5053070;28;20480;-52
2023/09/16 01:59:17;;;;;;;6.85;2.70;;;22.70;57.70;;;;;;5052894;28;20060;-48
2023/09/16 02:01:44;;;;;;;5.40;2.70;;;22.70;57.70;;;;;;5052688;28;20074;-52
2023/09/16 02:04:10;;;;;;;4.10;2.60;;;22.70;57.60;;;;;;5052671;28;20032;-51
2023/09/16 02:06:36;;;;;;;5.65;2.53;;;22.80;57.50;;;;;;5063971;28;20036;-54
2023/09/16 02:09:03;;;;;;;5.05;2.45;;;22.70;57.50;;;;;;5052795;28;20028;-48
2023/09/16 02:11:30;;;;;;;5.43;2.78;;;22.70;57.40;;;;;;5070460;28;20085;-54
2023/09/16 02:13:58;;;;;;;8.90;2.72;;;22.70;57.20;;;;;;5070774;28;20021;-49
2023/09/16 02:16:24;;;;;;;7.40;2.50;;;22.70;57.30;;;;;;5070699;28;20025;-53
2023/09/16 02:18:50;;;;;;;5.20;2.55;;;22.70;57.20;;;;;;5036328;28;20016;-54
2023/09/16 02:21:16;;;;;;;4.20;2.53;;;22.70;57.60;;;;;;5051405;28;20025;-49
2023/09/16 02:23:42;;;;;;;5.65;2.38;;;22.70;57.30;;;;;;5064541;28;20024;-50
2023/09/16 02:26:08;;;;;;;4.82;2.60;;;22.70;57.40;;;;;;5052580;28;20392;-55
2023/09/16 02:28:34;;;;;;;6.03;2.35;;;22.70;57.10;;;;;;5070594;28;20025;-50
2023/09/16 02:31:00;;;;;;;4.60;2.58;;;22.70;57.10;;;;;;5070366;28;20032;-54
2023/09/16 02:33:26;;;;;;;7.20;2.35;;;22.70;57.20;;;;;;5049784;28;20029;-52
2023/09/16 02:35:52;;;;;;;5.25;2.72;;;22.70;56.90;;;;;;5049746;28;20096;-54
2023/09/16 02:38:18;;;;;;;6.55;2.65;;;22.70;57.10;;;;;;5054965;28;20475;-53
2023/09/16 02:40:44;;;;;;;5.90;2.70;;;22.70;57.20;;;;;;5067780;28;20376;-47
2023/09/16 02:43:12;;;;;;;8.32;2.80;;;22.70;57.20;;;;;;5056003;28;20492;-49
2023/09/16 02:45:39;;;;;;;8.57;2.83;;;22.70;57.10;;;;;;5056078;28;20028;-50
2023/09/16 02:48:05;;;;;;;5.57;2.30;;;22.70;57.00;;;;;;5055966;28;20658;-48
2023/09/16 02:50:38;;;;;;;10.55;2.67;;;22.70;57.10;;;;;;5073947;28;20104;-51
2023/09/16 02:53:05;;;;;;;6.72;2.78;;;22.70;57.20;;;;;;5055634;28;20043;-51
2023/09/16 02:55:32;;;;;;;4.25;2.15;;;22.60;56.90;;;;;;5070843;28;20023;-50
2023/09/16 02:57:59;;;;;;;7.82;2.90;;;22.60;56.90;;;;;;5051748;28;20111;-50
2023/09/16 03:00:26;;;;;;;7.75;2.80;;;22.60;57.10;;;;;;5082376;23;20040;-57
2023/09/16 03:02:52;;;;;;;6.85;2.67;;;22.60;56.80;;;;;;5039797;28;20476;-53
2023/09/16 03:05:18;;;;;;;5.78;2.30;;;22.60;56.60;;;;;;5035796;28;20056;-57
2023/09/16 03:07:45;;;;;;;4.05;2.55;;;22.60;57.00;;;;;;5019349;28;20028;-55
2023/09/16 03:10:11;;;;;;;7.18;2.80;;;22.60;56.80;;;;;;5035372;28;20458;-55
2023/09/16 03:12:38;;;;;;;5.40;2.45;;;22.60;57.00;;;;;;5035879;28;20078;-55
2023/09/16 03:15:04;;;;;;;8.82;3.08;;;22.60;56.70;;;;;;5035461;28;20031;-53
2023/09/16 03:17:30;;;;;;;4.80;2.70;;;22.60;56.80;;;;;;5053244;28;20055;-54
2023/09/16 03:19:56;;;;;;;5.82;2.67;;;22.60;56.70;;;;;;5035449;28;20450;-57
2023/09/16 03:22:22;;;;;;;7.68;2.83;;;22.60;56.70;;;;;;5035012;28;20078;-54
2023/09/16 03:24:48;;;;;;;5.10;2.70;;;22.60;56.80;;;;;;5035285;28;20025;-52
2023/09/16 03:27:15;;;;;;;6.63;2.60;;;22.60;56.80;;;;;;5035276;28;20086;-56
2023/09/16 03:29:41;;;;;;;5.55;2.75;;;22.60;56.80;;;;;;5019177;28;20485;-57
2023/09/16 03:32:07;;;;;;;4.95;2.70;;;22.60;56.80;;;;;;5052672;28;20510;-51
2023/09/16 03:34:34;;;;;;;4.40;2.63;;;22.60;56.70;;;;;;5042978;28;20021;-57
2023/09/16 03:37:00;;;;;;;4.57;2.72;;;22.60;56.70;;;;;;5035184;28;20103;-57
2023/09/16 03:39:26;;;;;;;8.43;2.90;;;22.60;56.60;;;;;;5034944;28;20013;-56
2023/09/16 03:41:52;;;;;;;7.47;2.67;;;22.60;56.50;;;;;;5034788;28;20090;-55
2023/09/16 03:44:19;;;;;;;4.38;2.42;;;22.60;56.70;;;;;;5018354;28;20098;-53
2023/09/16 03:46:45;;;;;;;7.47;2.60;;;22.60;56.60;;;;;;5053209;28;20033;-54
2023/09/16 03:49:11;;;;;;;4.20;2.17;;;22.60;56.40;;;;;;5052471;28;20036;-55
2023/09/16 03:51:38;;;;;;;6.07;2.40;;;22.60;56.60;;;;;;5052688;28;20035;-57
2023/09/16 03:54:06;;;;;;;5.07;2.80;;;22.50;56.60;;;;;;5068103;28;20029;-56
2023/09/16 03:56:34;;;;;;;4.43;2.55;;;22.50;56.60;;;;;;5034881;28;20033;-56
2023/09/16 03:59:00;;;;;;;4.45;2.72;;;22.60;56.30;;;;;;5034523;28;20032;-52
2023/09/16 04:01:26;;;;;;;7.93;2.92;;;22.60;56.10;;;;;;5034299;28;20086;-57
2023/09/16 04:03:54;;;;;;;8.88;2.83;;;22.60;56.00;;;;;;5035213;28;20025;-52
2023/09/16 04:06:21;;;;;;;7.30;2.88;;;22.50;56.20;;;;;;5034540;28;20037;-57
2023/09/16 04:08:46;;;;;;;7.10;2.63;;;22.50;56.80;;;;;;5052259;28;20108;-55
2023/09/16 04:11:12;;;;;;;8.80;3.15;;;22.60;56.80;;;;;;5034058;28;20128;-50
2023/09/16 04:13:38;;;;;;;5.57;2.70;;;22.60;56.70;;;;;;5052303;28;20048;-50
2023/09/16 04:16:04;;;;;;;10.77;3.00;;;22.50;56.40;;;;;;5052231;28;20119;-54
2023/09/16 04:18:31;;;;;;;10.80;2.72;;;22.50;56.60;;;;;;5052121;28;20071;-52
2023/09/16 04:20:56;;;;;;;7.25;3.08;;;22.50;56.30;;;;;;5034600;28;20112;-53
2023/09/16 04:23:23;;;;;;;7.55;3.00;;;22.50;56.50;;;;;;5052036;28;20067;-53
2023/09/16 04:25:56;;;;;;;8.40;2.53;;;22.50;56.40;;;;;;5034337;28;20032;-52
2023/09/16 04:28:23;;;;;;;9.45;2.72;;;22.50;56.40;;;;;;5051882;28;20068;-52
2023/09/16 04:30:50;;;;;;;5.95;2.55;;;22.50;55.90;;;;;;5051639;28;20029;-51
2023/09/16 04:33:18;;;;;;;5.50;2.78;;;22.50;55.90;;;;;;5034577;28;20407;-54
2023/09/16 04:35:51;;;;;;;4.97;2.90;;;22.50;55.80;;;;;;5052388;28;20017;-51
2023/09/16 04:38:22;;;;;;;8.25;3.03;;;22.50;55.70;;;;;;5035002;28;20071;-50
2023/09/16 04:40:49;;;;;;;8.27;3.10;;;22.50;55.80;;;;;;5034528;28;20021;-56
2023/09/16 04:43:15;;;;;;;6.07;2.88;;;22.50;55.70;;;;;;5052666;28;20041;-56
2023/09/16 04:45:48;;;;;;;6.60;3.15;;;22.50;55.80;;;;;;5034759;28;20021;-49
2023/09/16 04:48:16;;;;;;;6.40;2.90;;;22.50;55.70;;;;;;5034560;28;20496;-50
2023/09/16 04:50:46;;;;;;;8.00;3.10;;;22.60;55.40;;;;;;5033660;28;20403;-49
2023/09/16 04:53:12;;;;;;;9.98;3.20;;;22.60;55.20;;;;;;5033678;28;20033;-51
2023/09/16 04:55:41;;;;;;;9.57;3.10;;;22.60;55.60;;;;;;5034377;28;20029;-50
2023/09/16 04:58:07;;;;;;;8.40;3.42;;;22.60;55.40;;;;;;5033512;28;20028;-54
2023/09/16 05:00:33;;;;;;;6.90;3.47;;;22.60;55.30;;;;;;5033621;28;20503;-52
2023/09/16 05:03:01;;;;;;;6.20;3.28;;;22.60;55.20;;;;;;5033383;28;20032;-57
2023/09/16 05:05:28;;;;;;;9.80;4.18;;;22.60;55.00;;;;;;5033522;28;20083;-54
2023/09/16 05:07:53;;;;;;;8.68;3.83;;;22.60;55.10;;;;;;5051322;28;20025;-52
2023/09/16 05:10:19;;;;;;;9.50;4.30;;;22.60;55.00;;;;;;5033459;28;20025;-51
2023/09/16 05:12:45;;;;;;;8.30;4.05;;;22.60;55.00;;;;;;5051611;28;20029;-52
2023/09/16 05:15:11;;;;;;;8.93;4.43;;;22.60;55.50;;;;;;5033577;28;20467;-56
2023/09/16 05:17:38;;;;;;;7.75;3.72;;;22.60;55.60;;;;;;5033631;28;20149;-52
2023/09/16 05:20:05;;;;;;;8.05;3.80;;;22.60;55.30;;;;;;5033682;28;20025;-53
2023/09/16 05:22:31;;;;;;;7.97;3.80;;;22.60;55.60;;;;;;5058178;28;20041;-53
2023/09/16 05:24:57;;;;;;;6.75;3.60;;;22.60;55.50;;;;;;5033630;28;20102;-53
2023/09/16 05:27:23;;;;;;;6.82;4.00;;;22.50;55.30;;;;;;5033438;28;20033;-49
2023/09/16 05:29:54;;;;;;;9.63;4.10;;;22.50;55.20;;;;;;5033874;28;20017;-52
2023/09/16 05:32:21;;;;;;;8.68;4.40;;;22.50;55.60;;;;;;5032951;28;20495;-55
2023/09/16 05:34:47;;;;;;;12.65;3.97;;;22.50;55.60;;;;;;5041235;28;20107;-51
2023/09/16 05:37:13;;;;;;;6.60;3.97;;;22.50;55.60;;;;;;5033189;28;20392;-54
2023/09/16 05:39:39;;;;;;;7.80;3.65;;;22.50;55.50;;;;;;5033380;28;20025;-54
2023/09/16 05:42:05;;;;;;;9.57;3.38;;;22.50;55.60;;;;;;5032931;28;20044;-51
2023/09/16 05:44:31;;;;;;;9.27;3.60;;;22.50;55.50;;;;;;5025307;28;20036;-52
2023/09/16 05:46:59;;;;;;;9.70;3.90;;;22.50;55.60;;;;;;5033813;28;20044;-52
2023/09/16 05:49:26;;;;;;;7.40;3.47;;;22.50;55.60;;;;;;5033036;28;20550;-53
2023/09/16 05:51:52;;;;;;;6.43;3.42;;;22.50;55.60;;;;;;5032966;28;20033;-51
2023/09/16 05:54:18;;;;;;;8.40;4.10;;;22.50;55.60;;;;;;5033322;28;20514;-51
2023/09/16 05:56:46;;;;;;;10.60;5.13;;;22.50;55.60;;;;;;5033161;28;20048;-52
2023/09/16 05:59:15;;;;;;;10.07;4.50;;;22.50;55.50;;;;;;5050825;28;20025;-50
2023/09/16 06:01:41;;;;;;;6.70;3.88;;;22.40;55.60;;;;;;5050670;28;20048;-50
2023/09/16 06:04:10;;;;;;;8.30;3.95;;;22.40;55.60;;;;;;5040364;28;20068;-52
2023/09/16 06:06:36;;;;;;;7.53;4.20;;;22.50;55.70;;;;;;5033028;28;20048;-51
2023/09/16 06:09:03;;;;;;;9.55;4.70;;;22.50;55.70;;;;;;5033087;28;20032;-50
2023/09/16 06:11:29;;;;;;;9.30;4.25;;;22.40;55.50;;;;;;5035506;28;20028;-52
2023/09/16 06:13:55;;;;;;;11.45;4.50;;;22.40;55.60;;;;;;5036829;28;20031;-50
2023/09/16 06:16:22;;;;;;;11.02;4.75;;;22.40;55.60;;;;;;5036698;28;20032;-51
2023/09/16 06:18:48;;;;;;;9.05;4.60;;;22.40;55.40;;;;;;5036750;28;20021;-51
2023/09/16 06:21:17;;;;;;;8.18;4.20;;;22.40;55.60;;;;;;5054885;28;20396;-54
2023/09/16 06:23:45;;;;;;;10.40;4.20;;;22.40;55.50;;;;;;5036875;28;20495;-51
2023/09/16 06:26:11;;;;;;;10.55;4.43;;;22.40;55.60;;;;;;5036550;28;20029;-50
2023/09/16 06:28:39;;;;;;;9.25;4.47;;;22.40;55.60;;;;;;5036627;28;20013;-53
2023/09/16 06:31:05;;;;;;;11.02;4.45;;;22.40;55.60;;;;;;5036185;28;20021;-53
2023/09/16 06:33:33;;;;;;;10.95;4.60;;;22.40;55.50;;;;;;5020955;28;20434;-57
2023/09/16 06:35:59;;;;;;;9.82;4.63;;;22.40;55.50;;;;;;5054188;28;20036;-53
2023/09/16 06:38:25;;;;;;;9.20;4.40;;;22.40;55.60;;;;;;5043833;28;20079;-54
2023/09/16 06:40:51;;;;;;;8.50;4.50;;;22.40;55.60;;;;;;5053883;28;20388;-53
2023/09/16 06:43:17;;;;;;;7.00;4.07;;;22.40;55.50;;;;;;5052752;28;20032;-53
2023/09/16 06:45:46;;;;;;;8.55;4.35;;;22.40;55.50;;;;;;5036092;28;20033;-49
2023/09/16 06:48:11;;;;;;;9.93;4.53;;;22.40;55.60;;;;;;5053970;28;20057;-49
2023/09/16 06:50:38;;;;;;;9.75;4.55;;;22.40;55.60;;;;;;5053823;28;20063;-52
2023/09/16 06:53:03;;;;;;;7.47;4.20;;;22.40;55.50;;;;;;5053479;28;20571;-50
2023/09/16 06:55:29;;;;;;;8.65;4.13;;;22.40;55.50;;;;;;5054309;28;20104;-50
2023/09/16 06:57:55;;;;;;;7.97;4.30;;;22.40;55.60;;;;;;5053885;28;20028;-51
2023/09/16 07:00:21;;;;;;;7.15;4.10;;;22.40;55.60;;;;;;5053639;28;20055;-51
2023/09/16 07:02:46;;;;;;;7.07;4.10;;;22.40;55.60;;;;;;5053626;28;20425;-53
2023/09/16 07:05:12;;;;;;;8.57;4.00;;;22.40;55.60;;;;;;5053574;28;20396;-53
2023/09/16 07:07:38;;;;;;;7.28;3.97;;;22.40;55.60;;;;;;5053677;28;20397;-55
2023/09/16 07:10:04;;;;;;;6.72;4.05;;;22.40;55.60;;;;;;5053996;28;20511;-53
2023/09/16 07:12:30;;;;;;;8.52;4.65;;;22.50;55.60;;;;;;5053836;28;20040;-57
2023/09/16 07:14:56;;;;;;;7.57;4.43;;;22.50;55.50;;;;;;5035749;28;20021;-57
2023/09/16 07:17:22;;;;;;;8.82;4.55;;;22.50;55.40;;;;;;5053387;28;20032;-53
2023/09/16 07:19:48;;;;;;;9.05;4.80;;;22.50;55.30;;;;;;5053410;28;20518;-55
2023/09/16 07:22:13;;;;;;;8.38;4.38;;;22.50;55.20;;;;;;5052651;28;20720;-57
2023/09/16 07:24:39;;;;;;;8.02;3.97;;;22.50;55.30;;;;;;5053357;28;20397;-57
2023/09/16 07:27:05;;;;;;;11.07;4.47;;;22.60;55.40;;;;;;5053241;28;20414;-57
2023/09/16 07:29:31;;;;;;;15.68;4.45;;;22.60;55.40;;;;;;5053533;28;20025;-53
2023/09/16 07:31:57;;;;;;;10.60;4.05;;;22.60;55.60;;;;;;5052926;28;20029;-56
2023/09/16 07:34:22;;;;;;;13.13;4.63;;;22.60;55.80;;;;;;5052985;28;20025;-55
2023/09/16 07:36:49;;;;;;;9.63;5.07;;;22.60;55.80;;;;;;5053082;28;20051;-52
2023/09/16 07:39:14;;;;;;;10.57;4.82;;;22.60;55.90;;;;;;5051661;28;20021;-50
2023/09/16 07:41:41;;;;;;;16.00;4.72;;;22.70;56.30;;;;;;5040574;28;20116;-51
2023/09/16 07:44:07;;;;;;;8.98;4.50;;;22.70;56.10;;;;;;5053129;28;20112;-57
2023/09/16 07:46:34;;;;;;;13.48;4.45;;;22.70;56.20;;;;;;5035154;28;20107;-50
2023/09/16 07:49:00;;;;;;;15.25;4.50;;;22.70;56.50;;;;;;5053044;28;20524;-55
2023/09/16 07:51:26;;;;;;;16.67;4.25;;;22.70;56.50;;;;;;5056704;28;20033;-50
2023/09/16 07:53:52;;;;;;;14.52;4.03;;;22.80;56.50;;;;;;5058214;28;20039;-56
2023/09/16 07:56:20;;;;;;;15.98;4.15;;;22.80;56.60;;;;;;5052567;28;20020;-53
2023/09/16 07:58:46;;;;;;;15.77;4.05;;;22.80;56.70;;;;;;5052429;28;20060;-54
2023/09/16 08:01:11;;;;;;;14.68;4.05;;;22.80;56.70;;;;;;5052749;28;20060;-52
2023/09/16 08:03:37;;;;;;;10.70;4.10;;;22.80;56.90;;;;;;5044927;28;20025;-55
2023/09/16 08:06:04;;;;;;;12.98;4.13;;;22.90;56.90;;;;;;5052474;28;20033;-56
2023/09/16 08:08:30;;;;;;;17.13;3.63;;;22.80;56.70;;;;;;5052469;28;20112;-54
2023/09/16 08:10:55;;;;;;;18.58;3.55;;;22.90;56.80;;;;;;5052038;28;20456;-56
2023/09/16 08:13:21;;;;;;;15.10;4.22;;;22.90;56.80;;;;;;5054053;28;20070;-56
2023/09/16 08:15:48;;;;;;;9.80;3.40;;;22.90;57.00;;;;;;5040502;28;20386;-52
2023/09/16 08:18:13;;;;;;;13.68;3.67;;;22.90;57.00;;;;;;5052515;28;20554;-52
2023/09/16 08:20:39;;;;;;;13.50;3.97;;;22.90;57.20;;;;;;5053950;28;20032;-55
2023/09/16 08:23:06;;;;;;;16.33;4.10;;;22.90;57.20;;;;;;5052437;28;20025;-55
2023/09/16 08:25:32;;;;;;;14.75;3.85;;;23.00;57.40;;;;;;5052125;28;20500;-54
2023/09/16 08:27:58;;;;;;;12.45;3.80;;;23.00;57.30;;;;;;5046143;28;20036;-57
2023/09/16 08:30:24;;;;;;;7.47;3.70;;;23.00;57.40;;;;;;5059391;28;20404;-57
2023/09/16 08:32:50;;;;;;;12.27;4.00;;;23.00;57.40;;;;;;5050768;28;20204;-57
2023/09/16 08:35:16;;;;;;;12.50;4.05;;;22.90;57.50;;;;;;5043920;28;20021;-57
2023/09/16 08:37:42;;;;;;;9.38;4.22;;;23.00;57.60;;;;;;5052160;28;20098;-57
2023/09/16 08:40:08;;;;;;;14.05;4.30;;;23.00;57.80;;;;;;5052113;28;20378;-56
2023/09/16 08:42:36;;;;;;;15.52;4.20;;;23.00;58.20;;;;;;5060611;28;20035;-55
2023/09/16 08:45:10;;;;;;;14.38;3.67;;;23.00;58.10;;;;;;5051975;28;20090;-52
2023/09/16 08:47:47;;;;;;;14.30;5.13;;;23.00;58.10;;;;;;5040873;28;20059;-56
2023/09/16 08:50:17;;;;;;;16.75;4.82;;;23.10;57.60;;;;;;5047753;28;20031;-54
2023/09/16 08:52:48;;;;;;;9.65;4.25;;;23.00;56.80;;;;;;5052744;28;20024;-51
2023/09/16 08:55:15;;;;;;;11.90;5.03;;;23.00;56.70;;;;;;5051413;28;20102;-57
2023/09/16 08:58:09;;;;;;;15.18;5.40;;;23.10;56.80;;;;;;5050301;28;20031;-57
2023/09/16 09:00:37;;;;;;;14.82;5.15;;;23.10;57.70;;;;;;5053703;28;20025;-56
2023/09/16 09:03:03;;;;;;;14.98;5.35;;;23.10;57.50;;;;;;5050895;28;20155;-55
2023/09/16 09:05:31;;;;;;;10.30;4.55;;;23.00;59.40;;;;;;5051093;28;20420;-56
2023/09/16 09:07:57;;;;;;;23.02;5.63;;;23.00;57.60;;;;;;5050943;28;20029;-54
2023/09/16 09:10:22;;;;;;;16.00;4.97;;;23.00;58.10;;;;;;5049881;28;20036;-53
2023/09/16 09:12:49;;;;;;;18.33;4.88;;;23.00;57.80;;;;;;5055553;28;20025;-56
2023/09/16 09:15:16;;;;;;;14.60;4.57;;;23.00;57.50;;;;;;5051249;28;20029;-54
2023/09/16 09:17:55;;;;;;;25.17;5.45;;;23.10;59.00;;;;;;5050538;28;20032;-56
2023/09/16 09:20:23;;;;;;;19.98;4.75;;;23.20;58.50;;;;;;5033778;28;20095;-57
2023/09/16 09:22:51;;;;;;;15.27;4.70;;;23.30;58.70;;;;;;5050988;28;20096;-57
2023/09/16 16:34:47;;;;;;;12.27;4.78;;;22.60;60.50;;;;;;5108864;27;20196;-52
2023/09/16 16:37:13;;;;;;;14.25;4.97;;;23.00;60.50;;;;;;5112533;22;20098;-51
2023/09/16 16:39:39;;;;;;;17.60;5.38;;;23.00;60.40;;;;;;5081119;28;20028;-49
2023/09/16 16:42:05;;;;;;;17.40;4.78;;;23.10;60.40;;;;;;5082994;28;20052;-51
2023/09/16 16:44:32;;;;;;;21.02;4.97;;;23.10;60.20;;;;;;5088382;28;20020;-50
2023/09/16 16:46:58;;;;;;;17.88;5.40;;;23.00;60.40;;;;;;5088241;28;20016;-51
2023/09/16 16:49:23;;;;;;;11.38;4.38;;;23.00;60.50;;;;;;5098909;28;20441;-49
2023/09/16 16:51:49;;;;;;;13.45;4.60;;;23.00;60.40;;;;;;5108930;28;20024;-53
2023/09/16 16:54:15;;;;;;;9.90;4.40;;;23.00;60.80;;;;;;5108597;28;20047;-51
2023/09/16 16:56:41;;;;;;;12.40;4.28;;;22.90;60.60;;;;;;5108653;28;20076;-51
2023/09/16 16:59:07;;;;;;;7.57;4.20;;;22.90;60.50;;;;;;5101162;28;20024;-52
2023/09/16 17:01:33;;;;;;;13.05;5.10;;;22.90;60.60;;;;;;5108834;28;20027;-53
2023/09/16 17:03:59;;;;;;;10.70;4.63;;;22.90;60.80;;;;;;5108283;28;20036;-52
2023/09/16 17:06:25;;;;;;;13.15;5.20;;;22.90;60.80;;;;;;5104053;28;20102;-51
2023/09/16 17:08:51;;;;;;;17.80;5.35;;;22.90;61.00;;;;;;5093226;28;20017;-51
2023/09/16 17:11:16;;;;;;;9.82;4.43;;;22.90;61.10;;;;;;5108708;28;20039;-56
2023/09/16 17:13:42;;;;;;;11.32;4.90;;;22.90;60.90;;;;;;5108394;28;20503;-54
2023/09/16 17:16:08;;;;;;;12.27;4.53;;;22.90;60.90;;;;;;5107452;28;20030;-50
2023/09/16 17:18:34;;;;;;;9.25;4.78;;;22.90;60.90;;;;;;5108697;28;20401;-55
2023/09/16 17:21:00;;;;;;;11.65;4.57;;;22.90;61.00;;;;;;5108631;28;20028;-53
2023/09/16 17:23:26;;;;;;;11.55;4.45;;;22.90;61.00;;;;;;5107826;28;20110;-56
2023/09/16 17:25:54;;;;;;;11.07;4.40;;;22.90;61.60;;;;;;5108545;28;20367;-51
2023/09/16 17:28:24;;;;;;;6.88;4.20;;;22.90;61.20;;;;;;5108537;28;20432;-54
2023/09/16 17:30:56;;;;;;;10.10;4.43;;;22.90;61.20;;;;;;5108494;28;20113;-52
2023/09/16 17:33:22;;;;;;;9.43;4.43;;;22.90;61.30;;;;;;5108073;28;20073;-55
2023/09/16 17:35:51;;;;;;;11.57;4.53;;;22.90;61.50;;;;;;5090250;28;20449;-56
2023/09/16 17:38:17;;;;;;;7.82;4.40;;;22.90;61.70;;;;;;5094433;28;20039;-52
2023/09/16 17:40:43;;;;;;;8.35;4.30;;;22.90;61.50;;;;;;5094880;28;20052;-53
2023/09/16 17:43:09;;;;;;;8.70;4.88;;;22.90;61.50;;;;;;5094219;28;20502;-49
2023/09/16 17:45:36;;;;;;;13.73;4.90;;;22.90;61.60;;;;;;5094651;28;20039;-56
2023/09/16 17:48:03;;;;;;;8.98;4.30;;;22.90;61.50;;;;;;5094400;28;20020;-54
2023/09/16 17:50:29;;;;;;;11.25;4.60;;;22.90;61.60;;;;;;5094476;28;20479;-51
2023/09/16 17:52:55;;;;;;;11.40;4.82;;;22.90;61.60;;;;;;5094053;28;20031;-54
2023/09/16 17:55:21;;;;;;;9.15;5.20;;;22.90;62.10;;;;;;5086728;28;20020;-54
2023/09/16 17:57:47;;;;;;;12.45;5.13;;;22.90;61.80;;;;;;5093032;28;20495;-55
2023/09/16 18:00:13;;;;;;;9.32;4.55;;;22.90;61.90;;;;;;5088996;28;20036;-53
2023/09/16 18:02:45;;;;;;;8.75;4.82;;;22.90;61.70;;;;;;5092748;28;20035;-49
2023/09/16 18:05:11;;;;;;;11.65;4.57;;;22.90;62.10;;;;;;5093692;28;20383;-52
2023/09/16 18:07:37;;;;;;;7.55;4.65;;;22.90;62.40;;;;;;5093999;28;20035;-51
2023/09/16 18:10:05;;;;;;;12.35;4.65;;;22.90;62.00;;;;;;5087765;28;20102;-50
2023/09/16 18:12:31;;;;;;;13.10;5.40;;;22.90;62.00;;;;;;5093988;28;20032;-51
2023/09/16 18:14:57;;;;;;;12.98;4.88;;;22.90;61.90;;;;;;5093750;28;20031;-52
2023/09/16 18:17:25;;;;;;;9.20;4.90;;;22.90;62.50;;;;;;5092763;28;20063;-54
2023/09/16 18:19:51;;;;;;;10.25;5.07;;;22.90;62.20;;;;;;5093952;28;20082;-53
2023/09/16 18:22:16;;;;;;;7.80;4.63;;;22.90;61.70;;;;;;5093751;28;20379;-55
2023/09/16 18:24:43;;;;;;;11.00;5.25;;;22.90;61.90;;;;;;5093577;28;20023;-50
2023/09/16 18:27:09;;;;;;;11.63;4.90;;;22.90;62.80;;;;;;5093650;28;20032;-53
2023/09/16 18:29:35;;;;;;;16.40;5.22;;;22.90;62.50;;;;;;5093646;28;20016;-54
2023/09/16 18:32:02;;;;;;;11.15;5.28;;;22.90;62.50;;;;;;5093477;28;20099;-55
2023/09/16 18:34:28;;;;;;;14.27;5.07;;;23.00;62.50;;;;;;5089623;28;20066;-56
2023/09/16 18:36:54;;;;;;;10.68;4.93;;;22.90;62.50;;;;;;5093001;28;20437;-53
2023/09/16 18:39:20;;;;;;;9.57;4.95;;;23.00;62.60;;;;;;5093422;28;20020;-52
2023/09/16 18:41:49;;;;;;;8.98;4.97;;;22.90;62.60;;;;;;5093571;28;20382;-56
2023/09/16 18:44:23;;;;;;;13.80;5.37;;;23.00;62.70;;;;;;5087650;28;20035;-55
2023/09/16 18:46:50;;;;;;;14.25;5.25;;;23.00;62.90;;;;;;5087457;28;20515;-54
2023/09/16 18:49:16;;;;;;;16.95;5.43;;;23.00;62.80;;;;;;5083884;28;20024;-52
2023/09/16 18:51:43;;;;;;;23.05;6.10;;;23.00;62.90;;;;;;5093108;28;20027;-54
2023/09/16 18:54:11;;;;;;;16.02;6.57;;;22.90;62.80;;;;;;5066121;28;20112;-55
2023/09/16 18:56:36;;;;;;;15.40;8.15;;;23.00;63.00;;;;;;5088679;28;20050;-50
2023/09/16 18:59:03;;;;;;;26.88;8.75;;;23.00;63.00;;;;;;5085285;28;20028;-56
2023/09/16 19:01:30;;;;;;;16.05;7.00;;;23.00;62.90;;;;;;5092875;28;20031;-56
2023/09/16 19:03:56;;;;;;;14.60;8.02;;;22.90;62.70;;;;;;5092641;28;20482;-54
2023/09/16 19:06:23;;;;;;;19.23;9.13;;;22.90;62.70;;;;;;5080817;28;20026;-52
2023/09/16 19:08:49;;;;;;;16.73;7.60;;;22.90;63.10;;;;;;5087056;28;20050;-56
2023/09/16 19:11:16;;;;;;;20.80;9.23;;;22.90;63.40;;;;;;5072364;28;20029;-54
2023/09/16 19:13:42;;;;;;;16.23;8.32;;;22.90;63.40;;;;;;5088599;28;20450;-52
2023/09/16 19:16:08;;;;;;;16.88;7.93;;;22.90;63.40;;;;;;5092485;28;20024;-54
2023/09/16 19:18:34;;;;;;;14.00;8.30;;;22.90;63.20;;;;;;5092767;28;20426;-53
2023/09/16 19:21:00;;;;;;;19.25;8.65;;;22.90;63.90;;;;;;5092563;28;20463;-51
2023/09/16 19:23:26;;;;;;;19.27;8.60;;;22.90;63.60;;;;;;5087269;28;20398;-55
2023/09/16 19:25:52;;;;;;;14.63;8.07;;;22.90;63.80;;;;;;5082788;28;20089;-55
2023/09/16 19:28:18;;;;;;;15.27;7.90;;;22.90;64.00;;;;;;5092287;28;20031;-56
2023/09/16 19:30:44;;;;;;;13.95;7.93;;;22.90;63.80;;;;;;5092373;28;20027;-53
2023/09/16 19:33:10;;;;;;;19.35;8.00;;;22.90;63.80;;;;;;5088891;28;20030;-52
2023/09/16 19:35:38;;;;;;;18.42;8.13;;;22.90;63.80;;;;;;5092356;28;20115;-55
2023/09/16 19:38:04;;;;;;;16.38;7.88;;;22.90;63.90;;;;;;5085498;28;20088;-55
2023/09/16 19:40:30;;;;;;;25.05;8.23;;;22.90;64.10;;;;;;5089901;28;20428;-55
2023/09/16 19:42:56;;;;;;;13.68;7.88;;;22.90;63.80;;;;;;5081629;28;20100;-51
2023/09/16 19:45:22;;;;;;;17.90;7.70;;;22.90;64.10;;;;;;5084593;28;20036;-51
2023/09/16 19:47:47;;;;;;;16.80;7.68;;;22.90;65.20;;;;;;5092129;28;20058;-49
2023/09/16 19:50:13;;;;;;;35.55;8.18;;;22.90;64.50;;;;;;5084851;28;20162;-47